Time;durP1;ratioP1;P1;durP2;ratioP2;P2;SDS_P1;SDS_P2;PMS_P1;PMS_P2;Temp;Humidity;BMP_temperature;BMP_pressure;BME280_temperature;BME280_humidity;BME280_pressure;Samples;Min_cycle;Max_cycle;Signal;HPM_P1;HPM_P2
2021/12/16 00:03:47;;;;;;;;;48.25;42.25;;;;;;;;5056731;28;11024;-89
2021/12/16 00:06:52;;;;;;;;;40.75;37.00;;;;;;;;5062920;28;11255;-81
2021/12/16 00:09:25;;;;;;;;;41.00;38.75;;;;;;;;5065661;28;10923;-85
2021/12/16 00:31:29;;;;;;;;;46.75;40.00;;;;;;;;5047462;28;10761;-79
2021/12/16 00:34:02;;;;;;;;;46.75;42.00;;;;;;;;5061942;28;11022;-83
2021/12/16 00:36:31;;;;;;;;;46.75;38.75;;;;;;;;5042506;28;11067;-85
2021/12/16 00:38:59;;;;;;;;;42.75;39.50;;;;;;;;5063084;28;11062;-90
2021/12/16 00:41:28;;;;;;;;;45.25;40.25;;;;;;;;5045501;28;10971;-85
2021/12/16 00:44:02;;;;;;;;;42.50;37.50;;;;;;;;5061548;28;11661;-91
2021/12/16 00:46:57;;;;;;;;;48.25;40.25;;;;;;;;5053414;28;11071;-88
2021/12/16 00:49:35;;;;;;;;;38.25;37.50;;;;;;;;5055641;28;11047;-83
2021/12/16 00:55:07;;;;;;;;;40.25;37.00;;;;;;;;5060808;28;10719;-83
2021/12/16 00:57:37;;;;;;;;;38.25;37.00;;;;;;;;5061266;28;10703;-85
2021/12/16 01:00:07;;;;;;;;;43.75;38.75;;;;;;;;5044100;28;11000;-83
2021/12/16 01:02:53;;;;;;;;;36.50;36.25;;;;;;;;5066552;28;10976;-83
2021/12/16 01:08:19;;;;;;;;;36.75;36.00;;;;;;;;5058606;28;11069;-90
2021/12/16 01:35:55;;;;;;;;;39.50;37.00;;;;;;;;5065531;28;11775;-87
2021/12/16 01:38:59;;;;;;;;;39.50;38.00;;;;;;;;5052834;28;10886;-82
2021/12/16 01:47:15;;;;;;;;;40.75;36.50;;;;;;;;5043644;28;10963;-83
2021/12/16 01:49:56;;;;;;;;;48.25;40.00;;;;;;;;5057817;28;10908;-87
2021/12/16 01:55:18;;;;;;;;;43.00;39.25;;;;;;;;5056101;28;10832;-86
2021/12/16 01:57:50;;;;;;;;;40.75;38.75;;;;;;;;5064931;28;10917;-82
2021/12/16 02:00:26;;;;;;;;;41.00;39.25;;;;;;;;5072332;28;10815;-80
2021/12/16 02:03:01;;;;;;;;;42.50;36.25;;;;;;;;5075052;28;11050;-83
2021/12/16 02:05:54;;;;;;;;;25.75;25.50;;;;;;;;5058130;28;10750;-89
2021/12/16 02:08:24;;;;;;;;;37.75;35.75;;;;;;;;5058949;28;10861;-81
2021/12/16 02:11:14;;;;;;;;;41.75;34.25;;;;;;;;5047210;28;10912;-82
2021/12/16 02:27:44;;;;;;;;;33.25;30.50;;;;;;;;5064038;28;10976;-88
2021/12/16 02:33:18;;;;;;;;;42.00;39.00;;;;;;;;5052808;28;10942;-80
2021/12/16 02:35:47;;;;;;;;;48.25;39.25;;;;;;;;5052482;28;11146;-80
2021/12/16 02:38:19;;;;;;;;;42.00;36.00;;;;;;;;5066426;28;11088;-83
2021/12/16 02:40:48;;;;;;;;;34.75;34.25;;;;;;;;5036304;28;11123;-85
2021/12/16 02:43:53;;;;;;;;;36.25;34.00;;;;;;;;5061210;28;11728;-88
2021/12/16 02:49:01;;;;;;;;;37.25;34.50;;;;;;;;5057433;28;10818;-80
2021/12/16 02:51:29;;;;;;;;;36.75;35.25;;;;;;;;5061060;28;10948;-80
2021/12/16 02:54:01;;;;;;;;;34.75;32.50;;;;;;;;5063963;28;11490;-80
2021/12/16 02:56:29;;;;;;;;;11.00;11.00;;;;;;;;5056440;28;11120;-81
2021/12/16 02:58:58;;;;;;;;;38.25;31.25;;;;;;;;5063543;28;11055;-84
2021/12/16 03:01:29;;;;;;;;;28.75;28.00;;;;;;;;5064902;28;10873;-82
2021/12/16 03:03:59;;;;;;;;;31.75;30.75;;;;;;;;5064284;28;11680;-86
2021/12/16 03:06:29;;;;;;;;;34.00;30.50;;;;;;;;5051800;28;10821;-85
2021/12/16 03:08:58;;;;;;;;;47.00;37.00;;;;;;;;5051291;28;10860;-82
2021/12/16 03:11:34;;;;;;;;;41.75;40.25;;;;;;;;5064364;28;10926;-90
2021/12/16 03:14:21;;;;;;;;;41.50;37.25;;;;;;;;5058404;28;11236;-81
2021/12/16 03:17:03;;;;;;;;;42.25;37.00;;;;;;;;5062142;28;11054;-94
2021/12/16 03:19:42;;;;;;;;;39.75;38.25;;;;;;;;5072077;28;10728;-94
2021/12/16 03:22:19;;;;;;;;;39.00;34.50;;;;;;;;5049321;28;11027;-82
2021/12/16 03:27:59;;;;;;;;;38.25;36.75;;;;;;;;5067496;28;10673;-84
2021/12/16 03:36:08;;;;;;;;;41.25;38.50;;;;;;;;5054415;28;11070;-83
2021/12/16 03:38:38;;;;;;;;;36.25;33.50;;;;;;;;5053799;28;10860;-89
2021/12/16 03:41:08;;;;;;;;;41.75;38.00;;;;;;;;5053378;28;10813;-83
2021/12/16 03:43:37;;;;;;;;;44.00;37.00;;;;;;;;5052859;28;10746;-83
2021/12/16 03:46:27;;;;;;;;;36.25;36.25;;;;;;;;5064637;28;11036;-84
2021/12/16 03:49:03;;;;;;;;;41.75;39.75;;;;;;;;5052026;28;10954;-89
2021/12/16 03:51:35;;;;;;;;;36.50;31.00;;;;;;;;5051711;28;11067;-83
2021/12/16 03:54:06;;;;;;;;;41.00;37.75;;;;;;;;5052388;28;10666;-79
2021/12/16 03:56:35;;;;;;;;;41.50;36.25;;;;;;;;5057788;28;10936;-87
2021/12/16 03:59:03;;;;;;;;;40.50;37.00;;;;;;;;5063923;28;10744;-78
2021/12/16 04:01:34;;;;;;;;;37.50;37.00;;;;;;;;5059643;28;10862;-78
2021/12/16 04:04:01;;;;;;;;;35.25;33.00;;;;;;;;5065291;28;11034;-78
2021/12/16 04:06:34;;;;;;;;;31.25;31.25;;;;;;;;5050931;28;11415;-85
2021/12/16 04:09:03;;;;;;;;;43.25;38.50;;;;;;;;5059228;28;10767;-87
2021/12/16 04:11:38;;;;;;;;;53.00;43.25;;;;;;;;5061399;28;10885;-87
2021/12/16 04:14:09;;;;;;;;;41.00;39.50;;;;;;;;5059266;28;11039;-82
2021/12/16 04:16:39;;;;;;;;;46.00;40.00;;;;;;;;5064693;28;11171;-86
2021/12/16 04:19:12;;;;;;;;;40.25;36.25;;;;;;;;5049902;28;11179;-81
2021/12/16 04:21:41;;;;;;;;;37.75;37.00;;;;;;;;5051712;28;10994;-82
2021/12/16 04:24:09;;;;;;;;;44.00;40.50;;;;;;;;5055270;28;11070;-86
2021/12/16 04:26:39;;;;;;;;;48.50;42.00;;;;;;;;5038153;28;11296;-86
2021/12/16 04:29:08;;;;;;;;;42.75;40.00;;;;;;;;5058015;28;11301;-88
2021/12/16 04:31:38;;;;;;;;;45.25;40.75;;;;;;;;5055702;28;11113;-85
2021/12/16 04:34:06;;;;;;;;;46.50;41.00;;;;;;;;5050850;28;11257;-81
2021/12/16 04:36:35;;;;;;;;;50.75;42.50;;;;;;;;5064596;28;11142;-82
2021/12/16 04:39:04;;;;;;;;;46.50;39.75;;;;;;;;5059902;28;11013;-81
2021/12/16 04:41:32;;;;;;;;;49.50;43.50;;;;;;;;5053116;28;10989;-87
2021/12/16 04:43:59;;;;;;;;;52.00;41.00;;;;;;;;5064243;28;11054;-85
2021/12/16 04:46:30;;;;;;;;;45.00;39.00;;;;;;;;5055579;28;11150;-84
2021/12/16 04:49:00;;;;;;;;;39.75;36.50;;;;;;;;5058140;28;10835;-84
2021/12/16 04:51:30;;;;;;;;;34.75;34.50;;;;;;;;5058907;28;10999;-88
2021/12/16 04:53:58;;;;;;;;;40.25;35.25;;;;;;;;5053095;28;10906;-80
2021/12/16 04:56:26;;;;;;;;;39.00;37.00;;;;;;;;5050916;28;10864;-88
2021/12/16 04:58:56;;;;;;;;;45.75;38.75;;;;;;;;5053721;28;10982;-82
2021/12/16 05:01:23;;;;;;;;;40.50;38.50;;;;;;;;5068272;28;10989;-84
2021/12/16 05:03:53;;;;;;;;;51.50;40.50;;;;;;;;5047093;28;11537;-79
2021/12/16 05:06:20;;;;;;;;;45.75;41.25;;;;;;;;5060021;28;11109;-83
2021/12/16 05:08:47;;;;;;;;;57.25;43.25;;;;;;;;5062067;28;11227;-80
2021/12/16 05:11:17;;;;;;;;;44.00;40.25;;;;;;;;5059032;28;11477;-82
2021/12/16 05:14:02;;;;;;;;;57.25;46.50;;;;;;;;5066408;28;11072;-85
2021/12/16 05:16:30;;;;;;;;;47.00;41.00;;;;;;;;5061205;28;11221;-81
2021/12/16 05:18:59;;;;;;;;;48.75;42.25;;;;;;;;5058457;28;10970;-82
2021/12/16 05:21:43;;;;;;;;;38.00;37.00;;;;;;;;5063335;28;11115;-85
2021/12/16 05:24:16;;;;;;;;;55.50;42.75;;;;;;;;5062148;28;10993;-87
2021/12/16 05:26:44;;;;;;;;;49.25;39.25;;;;;;;;5059760;28;12247;-85
2021/12/16 05:29:11;;;;;;;;;48.25;41.50;;;;;;;;5066696;28;11014;-88
2021/12/16 05:31:51;;;;;;;;;42.25;36.50;;;;;;;;5051398;28;11264;-87
2021/12/16 05:34:24;;;;;;;;;45.00;37.00;;;;;;;;5053181;28;10899;-85
2021/12/16 05:36:52;;;;;;;;;41.25;38.25;;;;;;;;5057264;28;11087;-85
2021/12/16 05:39:20;;;;;;;;;39.25;36.25;;;;;;;;5060504;28;10893;-81
2021/12/16 05:41:48;;;;;;;;;33.00;31.75;;;;;;;;5057811;28;10776;-82
2021/12/16 05:44:15;;;;;;;;;36.00;36.00;;;;;;;;5059319;28;10898;-80
2021/12/16 05:46:43;;;;;;;;;43.00;36.50;;;;;;;;5057176;28;10898;-83
2021/12/16 05:49:14;;;;;;;;;44.25;39.25;;;;;;;;5056822;28;10761;-85
2021/12/16 05:51:48;;;;;;;;;42.25;38.50;;;;;;;;5062564;28;11100;-84
2021/12/16 05:54:17;;;;;;;;;40.75;36.50;;;;;;;;5058018;28;12704;-85
2021/12/16 05:56:44;;;;;;;;;40.00;36.75;;;;;;;;5055126;28;10917;-76
2021/12/16 05:59:13;;;;;;;;;48.00;38.50;;;;;;;;5059728;28;10999;-81
2021/12/16 06:01:42;;;;;;;;;46.50;39.00;;;;;;;;5043451;28;11031;-80
2021/12/16 06:04:10;;;;;;;;;39.00;35.00;;;;;;;;5057022;28;10981;-77
2021/12/16 06:06:38;;;;;;;;;49.25;40.50;;;;;;;;5058964;28;11000;-78
2021/12/16 06:09:08;;;;;;;;;41.75;37.75;;;;;;;;5055738;28;11235;-79
2021/12/16 06:11:38;;;;;;;;;44.75;37.25;;;;;;;;5056429;28;11011;-79
2021/12/16 06:14:13;;;;;;;;;45.50;41.25;;;;;;;;5056572;28;11051;-80
2021/12/16 06:28:06;;;;;;;;;28.75;25.25;;;;;;;;5021463;28;11526;-78
2021/12/16 06:30:36;;;;;;;;;45.00;38.75;;;;;;;;5052227;28;11089;-78
2021/12/16 06:33:07;;;;;;;;;35.75;35.50;;;;;;;;5061863;28;11180;-80
2021/12/16 06:35:34;;;;;;;;;41.00;39.25;;;;;;;;5061903;28;10909;-81
2021/12/16 06:38:01;;;;;;;;;36.50;36.50;;;;;;;;5064923;28;11251;-80
2021/12/16 06:40:30;;;;;;;;;47.50;39.25;;;;;;;;5055600;28;11736;-78
2021/12/16 06:42:59;;;;;;;;;41.50;36.25;;;;;;;;5044299;28;11208;-82
2021/12/16 06:45:31;;;;;;;;;35.25;34.75;;;;;;;;5047841;28;10902;-81
2021/12/16 06:48:03;;;;;;;;;40.00;38.75;;;;;;;;5062737;28;10768;-81
2021/12/16 06:50:40;;;;;;;;;37.25;36.75;;;;;;;;5061059;28;11650;-76
2021/12/16 06:53:11;;;;;;;;;36.25;34.00;;;;;;;;5064263;28;11016;-81
2021/12/16 06:55:45;;;;;;;;;38.25;36.25;;;;;;;;5062836;28;10895;-74
2021/12/16 06:58:20;;;;;;;;;37.25;37.00;;;;;;;;5065288;28;11684;-76
2021/12/16 07:00:49;;;;;;;;;41.00;37.00;;;;;;;;5063152;28;10938;-77
2021/12/16 07:03:20;;;;;;;;;47.50;40.00;;;;;;;;5065264;28;10991;-74
2021/12/16 07:05:52;;;;;;;;;42.25;36.25;;;;;;;;5063803;28;11009;-81
2021/12/16 07:08:22;;;;;;;;;42.25;36.00;;;;;;;;5064946;28;11060;-83
2021/12/16 07:10:52;;;;;;;;;45.50;40.50;;;;;;;;5064251;28;11015;-78
2021/12/16 07:13:29;;;;;;;;;46.75;40.75;;;;;;;;5055793;28;11051;-80
2021/12/16 07:15:58;;;;;;;;;49.50;41.75;;;;;;;;5064719;28;11176;-78
2021/12/16 07:18:26;;;;;;;;;40.25;38.25;;;;;;;;5045259;28;11221;-81
2021/12/16 07:20:53;;;;;;;;;52.50;40.50;;;;;;;;5064619;28;11161;-80
2021/12/16 07:23:21;;;;;;;;;40.50;35.75;;;;;;;;5063436;28;11121;-80
2021/12/16 07:25:50;;;;;;;;;44.50;37.00;;;;;;;;5064721;28;11008;-76
2021/12/16 07:28:18;;;;;;;;;51.50;45.00;;;;;;;;5061633;28;10929;-75
2021/12/16 07:30:48;;;;;;;;;78.75;57.75;;;;;;;;5052092;28;11245;-80
2021/12/16 07:33:16;;;;;;;;;78.25;63.00;;;;;;;;5064687;28;11654;-81
2021/12/16 07:35:46;;;;;;;;;61.50;51.00;;;;;;;;5045033;28;11562;-74
2021/12/16 07:38:13;;;;;;;;;82.25;64.00;;;;;;;;5071823;28;11518;-75
2021/12/16 07:40:43;;;;;;;;;68.25;55.50;;;;;;;;5061619;28;11577;-73
2021/12/16 07:43:24;;;;;;;;;64.25;51.25;;;;;;;;5063649;28;11578;-76
2021/12/16 07:45:52;;;;;;;;;64.25;53.00;;;;;;;;5059038;28;11645;-74
2021/12/16 07:48:21;;;;;;;;;56.50;48.25;;;;;;;;5055467;28;11542;-77
2021/12/16 07:50:53;;;;;;;;;4.00;4.00;;;;;;;;5064190;28;11644;-76
2021/12/16 07:53:21;;;;;;;;;55.25;45.25;;;;;;;;5063320;28;11290;-76
2021/12/16 07:55:48;;;;;;;;;41.75;38.00;;;;;;;;5064488;28;11469;-79
2021/12/16 07:58:19;;;;;;;;;71.00;57.25;;;;;;;;5063525;28;12008;-78
2021/12/16 08:00:47;;;;;;;;;68.75;57.50;;;;;;;;5058859;28;11526;-74
2021/12/16 08:03:15;;;;;;;;;66.50;54.50;;;;;;;;5056054;28;11590;-78
2021/12/16 08:05:46;;;;;;;;;65.50;54.75;;;;;;;;5063421;28;11585;-81
2021/12/16 08:08:15;;;;;;;;;69.00;55.25;;;;;;;;5048433;28;11510;-78
2021/12/16 08:10:43;;;;;;;;;63.25;53.00;;;;;;;;5042103;28;11605;-78
2021/12/16 08:13:10;;;;;;;;;59.50;49.50;;;;;;;;5044307;28;11548;-80
2021/12/16 08:15:39;;;;;;;;;57.75;46.50;;;;;;;;5042232;28;11509;-79
2021/12/16 08:18:06;;;;;;;;;53.25;43.75;;;;;;;;5060995;28;11519;-81
2021/12/16 08:20:34;;;;;;;;;42.00;39.75;;;;;;;;5052996;28;11507;-77
2021/12/16 08:23:02;;;;;;;;;42.25;40.00;;;;;;;;5066162;28;11325;-82
2021/12/16 08:25:31;;;;;;;;;49.25;43.00;;;;;;;;5053180;28;11321;-81
2021/12/16 08:28:00;;;;;;;;;39.00;37.75;;;;;;;;5055686;28;11489;-81
2021/12/16 08:30:29;;;;;;;;;40.00;37.50;;;;;;;;5056155;28;11138;-82
2021/12/16 08:32:59;;;;;;;;;44.25;39.25;;;;;;;;5065965;28;11503;-81
2021/12/16 08:35:27;;;;;;;;;53.00;40.75;;;;;;;;5063256;28;11500;-79
2021/12/16 08:37:56;;;;;;;;;67.75;55.50;;;;;;;;5063891;28;11436;-82
2021/12/16 08:40:25;;;;;;;;;72.00;57.75;;;;;;;;5066741;28;11516;-77
2021/12/16 08:42:53;;;;;;;;;70.75;55.00;;;;;;;;5061083;28;11575;-79
2021/12/16 08:45:24;;;;;;;;;78.00;61.25;;;;;;;;5059336;28;11567;-82
2021/12/16 08:47:52;;;;;;;;;66.25;55.00;;;;;;;;5068025;28;11628;-80
2021/12/16 08:50:22;;;;;;;;;55.75;47.00;;;;;;;;5065942;28;11571;-74
2021/12/16 08:52:50;;;;;;;;;87.75;70.75;;;;;;;;5067175;28;11503;-81
2021/12/16 08:55:17;;;;;;;;;79.00;63.50;;;;;;;;5065742;28;11700;-82
2021/12/16 08:57:45;;;;;;;;;76.25;58.00;;;;;;;;5066965;28;11570;-80
2021/12/16 09:00:15;;;;;;;;;85.25;68.00;;;;;;;;5066789;28;11641;-81
2021/12/16 09:02:43;;;;;;;;;75.75;61.50;;;;;;;;5066161;28;11601;-81
2021/12/16 09:05:10;;;;;;;;;63.50;52.50;;;;;;;;5067166;28;12362;-81
2021/12/16 09:07:39;;;;;;;;;84.75;66.25;;;;;;;;5065903;28;11637;-80
2021/12/16 09:10:10;;;;;;;;;125.50;106.75;;;;;;;;5066384;28;11694;-83
2021/12/16 09:15:21;;;;;;;;;75.50;57.25;;;;;;;;5063238;28;11814;-82
2021/12/16 09:17:48;;;;;;;;;67.50;52.00;;;;;;;;5067381;28;11710;-79
2021/12/16 09:20:16;;;;;;;;;53.75;43.00;;;;;;;;5065541;28;11552;-78
2021/12/16 09:22:46;;;;;;;;;53.25;45.75;;;;;;;;5055370;28;11344;-81
2021/12/16 09:25:14;;;;;;;;;66.75;56.25;;;;;;;;5051411;28;12266;-78
2021/12/16 09:27:41;;;;;;;;;75.00;60.75;;;;;;;;5075764;28;11528;-82
2021/12/16 09:30:11;;;;;;;;;61.00;51.00;;;;;;;;5066329;28;11553;-78
2021/12/16 09:32:39;;;;;;;;;59.50;49.75;;;;;;;;5066435;28;11517;-80
2021/12/16 09:35:07;;;;;;;;;65.50;53.50;;;;;;;;5066605;28;11486;-74
2021/12/16 09:37:35;;;;;;;;;63.75;51.25;;;;;;;;5076406;28;11460;-77
2021/12/16 09:40:06;;;;;;;;;60.50;48.50;;;;;;;;5065543;28;12415;-82
2021/12/16 09:42:35;;;;;;;;;68.00;54.75;;;;;;;;5065794;28;11540;-82
2021/12/16 09:45:03;;;;;;;;;82.00;65.00;;;;;;;;5062325;28;11570;-82
2021/12/16 09:47:30;;;;;;;;;77.00;61.25;;;;;;;;5063313;28;12619;-80
2021/12/16 09:50:00;;;;;;;;;65.00;54.00;;;;;;;;5065573;28;11565;-82
2021/12/16 09:52:27;;;;;;;;;74.75;58.75;;;;;;;;5066209;28;12313;-79
2021/12/16 09:54:55;;;;;;;;;70.75;57.00;;;;;;;;5065275;28;11657;-77
2021/12/16 09:57:25;;;;;;;;;64.75;54.25;;;;;;;;5066142;28;11590;-79
2021/12/16 09:59:52;;;;;;;;;67.25;54.50;;;;;;;;5065174;28;11634;-81
2021/12/16 10:02:21;;;;;;;;;62.00;49.50;;;;;;;;5054336;28;11466;-78
2021/12/16 10:04:49;;;;;;;;;59.25;48.75;;;;;;;;5047863;28;11508;-80
2021/12/16 10:07:22;;;;;;;;;60.75;49.50;;;;;;;;5065650;28;12235;-80
2021/12/16 10:09:51;;;;;;;;;55.25;47.00;;;;;;;;5066019;28;11605;-75
2021/12/16 10:12:24;;;;;;;;;55.25;45.25;;;;;;;;5064606;28;11512;-76
2021/12/16 10:17:19;;;;;;;;;69.25;55.75;;;;;;;;5065911;28;11519;-81
2021/12/16 10:17:52;;;;;;;;;63.50;49.25;;;;;;;;5065226;28;11518;-79
2021/12/16 10:20:28;;;;;;;;;74.75;61.00;;;;;;;;5056716;28;11471;-78
2021/12/16 10:23:03;;;;;;;;;69.50;54.75;;;;;;;;5064940;28;11509;-78
2021/12/16 10:25:33;;;;;;;;;59.25;49.50;;;;;;;;5044659;28;11556;-78
2021/12/16 10:28:10;;;;;;;;;55.50;46.50;;;;;;;;5057740;28;11700;-84
2021/12/16 10:30:49;;;;;;;;;54.50;43.75;;;;;;;;5064406;28;11139;-79
2021/12/16 10:33:21;;;;;;;;;51.50;41.50;;;;;;;;5065248;28;10998;-78
2021/12/16 10:35:49;;;;;;;;;45.00;39.75;;;;;;;;5062054;28;11090;-78
2021/12/16 10:38:20;;;;;;;;;49.50;41.75;;;;;;;;5063882;28;10948;-76
2021/12/16 10:40:50;;;;;;;;;45.50;40.75;;;;;;;;5065317;28;10836;-81
2021/12/16 10:43:26;;;;;;;;;48.25;42.25;;;;;;;;5064218;28;10730;-82
2021/12/16 10:45:59;;;;;;;;;51.75;44.00;;;;;;;;5040937;28;11033;-81
2021/12/16 10:48:30;;;;;;;;;46.25;39.75;;;;;;;;5053387;28;11074;-83
2021/12/16 10:51:04;;;;;;;;;47.50;40.25;;;;;;;;5044613;28;10996;-81
2021/12/16 10:53:55;;;;;;;;;49.00;43.25;;;;;;;;5061363;28;10855;-81
2021/12/16 10:56:27;;;;;;;;;40.25;36.00;;;;;;;;5063916;28;10678;-77
2021/12/16 10:58:58;;;;;;;;;51.50;42.25;;;;;;;;5066118;28;10687;-77
2021/12/16 11:02:04;;;;;;;;;48.00;41.25;;;;;;;;5063812;28;10669;-79
2021/12/16 11:04:41;;;;;;;;;60.75;50.00;;;;;;;;5041224;28;11560;-75
2021/12/16 11:07:13;;;;;;;;;49.75;42.25;;;;;;;;5048478;28;11014;-78
2021/12/16 11:09:52;;;;;;;;;56.75;45.50;;;;;;;;5061158;28;10954;-80
2021/12/16 11:12:44;;;;;;;;;44.25;40.25;;;;;;;;5052923;28;10864;-79
2021/12/16 11:15:16;;;;;;;;;43.75;38.50;;;;;;;;5062528;28;10676;-78
2021/12/16 11:17:46;;;;;;;;;50.00;41.75;;;;;;;;5063931;28;10425;-81
2021/12/16 11:20:30;;;;;;;;;47.25;39.75;;;;;;;;5064519;28;10542;-80
2021/12/16 11:22:59;;;;;;;;;40.25;38.00;;;;;;;;5040820;28;10537;-75
2021/12/16 11:25:32;;;;;;;;;46.50;39.00;;;;;;;;5061391;28;10434;-74
2021/12/16 11:28:12;;;;;;;;;45.75;41.25;;;;;;;;5051550;28;10390;-78
2021/12/16 11:30:47;;;;;;;;;48.00;42.00;;;;;;;;5047186;28;10564;-78
2021/12/16 11:33:17;;;;;;;;;52.00;43.00;;;;;;;;5058377;28;10602;-76
2021/12/16 11:35:50;;;;;;;;;47.25;38.00;;;;;;;;5063660;28;10761;-74
2021/12/16 11:38:23;;;;;;;;;48.75;43.00;;;;;;;;5049750;28;11361;-81
2021/12/16 11:41:23;;;;;;;;;53.25;43.75;;;;;;;;5047652;28;10827;-83
2021/12/16 11:43:58;;;;;;;;;43.50;38.75;;;;;;;;5060753;28;10576;-75
2021/12/16 11:46:29;;;;;;;;;76.75;60.50;;;;;;;;5053803;28;11359;-75
2021/12/16 11:49:00;;;;;;;;;50.00;43.25;;;;;;;;5062365;28;11626;-81
2021/12/16 11:51:33;;;;;;;;;54.75;45.25;;;;;;;;5066333;28;10621;-73
2021/12/16 11:54:04;;;;;;;;;48.50;42.00;;;;;;;;5076202;28;10844;-82
2021/12/16 11:56:40;;;;;;;;;49.50;39.50;;;;;;;;5034995;28;10497;-75
2021/12/16 11:59:08;;;;;;;;;55.50;47.25;;;;;;;;5052357;28;10601;-80
2021/12/16 12:01:39;;;;;;;;;46.00;39.50;;;;;;;;5057661;28;11437;-85
2021/12/16 12:04:08;;;;;;;;;48.50;40.50;;;;;;;;5058135;28;10538;-81
2021/12/16 12:06:38;;;;;;;;;50.75;44.50;;;;;;;;5065382;28;10286;-75
2021/12/16 12:09:09;;;;;;;;;52.25;42.50;;;;;;;;5063289;28;10269;-81
2021/12/16 12:11:40;;;;;;;;;57.00;47.50;;;;;;;;5061249;28;10260;-80
2021/12/16 12:14:10;;;;;;;;;53.25;44.75;;;;;;;;5041919;28;10581;-81
2021/12/16 12:16:40;;;;;;;;;49.25;40.25;;;;;;;;5062819;28;10505;-75
2021/12/16 12:19:14;;;;;;;;;51.00;40.50;;;;;;;;5045652;28;10381;-75
2021/12/16 12:21:45;;;;;;;;;48.25;39.75;;;;;;;;5064442;28;10290;-76
2021/12/16 12:24:16;;;;;;;;;53.00;45.75;;;;;;;;5064056;28;10370;-75
2021/12/16 12:26:49;;;;;;;;;47.00;41.50;;;;;;;;5055234;28;11103;-81
2021/12/16 12:29:19;;;;;;;;;43.75;38.25;;;;;;;;5062997;28;10371;-75
2021/12/16 12:31:48;;;;;;;;;42.25;38.50;;;;;;;;5059450;28;10217;-78
2021/12/16 12:34:17;;;;;;;;;55.00;46.50;;;;;;;;5062595;28;10368;-82
2021/12/16 12:36:48;;;;;;;;;48.25;40.00;;;;;;;;5062625;28;10548;-82
2021/12/16 12:39:17;;;;;;;;;44.50;38.50;;;;;;;;5056187;28;10341;-79
2021/12/16 12:41:46;;;;;;;;;36.50;34.75;;;;;;;;5062974;28;10215;-84
2021/12/16 12:44:13;;;;;;;;;55.25;44.00;;;;;;;;5064461;28;10035;-79
2021/12/16 12:46:42;;;;;;;;;52.50;43.00;;;;;;;;5063891;28;10347;-82
2021/12/16 12:49:12;;;;;;;;;42.00;38.00;;;;;;;;5066821;28;10231;-79
2021/12/16 12:51:42;;;;;;;;;47.25;40.00;;;;;;;;5063209;28;10060;-84
2021/12/16 12:54:32;;;;;;;;;46.75;42.00;;;;;;;;5042397;28;9962;-83
2021/12/16 12:57:19;;;;;;;;;50.50;42.50;;;;;;;;5066639;28;10026;-85
2021/12/16 12:59:47;;;;;;;;;47.75;41.50;;;;;;;;5060995;28;10054;-82
2021/12/16 13:02:16;;;;;;;;;55.00;43.50;;;;;;;;5063265;28;10173;-85
2021/12/16 13:04:48;;;;;;;;;53.25;42.75;;;;;;;;5031679;28;10296;-82
2021/12/16 13:07:16;;;;;;;;;48.50;42.75;;;;;;;;5066896;28;10215;-81
2021/12/16 13:09:47;;;;;;;;;45.25;39.75;;;;;;;;5055058;28;10198;-81
2021/12/16 13:12:37;;;;;;;;;54.00;45.25;;;;;;;;5071450;28;10379;-83
2021/12/16 13:15:33;;;;;;;;;54.25;44.50;;;;;;;;5054441;28;11217;-86
2021/12/16 13:24:15;;;;;;;;;46.25;38.25;;;;;;;;5062741;28;10126;-80
2021/12/16 13:26:50;;;;;;;;;49.50;39.00;;;;;;;;5071284;28;9872;-83
2021/12/16 13:29:32;;;;;;;;;45.75;38.25;;;;;;;;5058618;28;9881;-80
2021/12/16 13:32:09;;;;;;;;;42.50;37.25;;;;;;;;5055791;28;9736;-83
2021/12/16 13:34:47;;;;;;;;;45.50;38.75;;;;;;;;5066737;28;9958;-80
2021/12/16 13:37:22;;;;;;;;;42.25;38.00;;;;;;;;5069807;28;9857;-84
2021/12/16 13:39:52;;;;;;;;;39.75;37.75;;;;;;;;5057696;28;10039;-84
2021/12/16 13:42:21;;;;;;;;;39.00;34.75;;;;;;;;5061425;28;9981;-83
2021/12/16 13:45:01;;;;;;;;;44.00;39.25;;;;;;;;5059505;28;10768;-87
2021/12/16 14:01:58;;;;;;;;;38.50;35.75;;;;;;;;5065535;28;9988;-82
2021/12/16 14:04:58;;;;;;;;;40.00;36.75;;;;;;;;5066741;28;10549;-83
2021/12/16 14:07:54;;;;;;;;;47.75;38.25;;;;;;;;5052192;28;10061;-83
2021/12/16 14:10:28;;;;;;;;;44.50;38.50;;;;;;;;5066210;28;9974;-80
2021/12/16 14:16:27;;;;;;;;;48.50;39.25;;;;;;;;5060422;28;9756;-79
2021/12/16 14:25:09;;;;;;;;;49.00;40.50;;;;;;;;5055259;28;9987;-81
2021/12/16 14:39:08;;;;;;;;;50.50;40.75;;;;;;;;5046743;28;10961;-76
2021/12/16 14:47:52;;;;;;;;;46.50;39.75;;;;;;;;5122010;27;10010;-81
2021/12/16 14:50:20;;;;;;;;;46.25;40.00;;;;;;;;5115740;27;9722;-82
2021/12/16 14:52:48;;;;;;;;;52.00;42.25;;;;;;;;5122000;28;9782;-85
2021/12/16 14:55:17;;;;;;;;;49.75;42.50;;;;;;;;5122354;27;10122;-83
2021/12/16 14:57:46;;;;;;;;;44.50;38.00;;;;;;;;5122916;27;10055;-83
2021/12/16 15:00:18;;;;;;;;;40.50;36.75;;;;;;;;5116920;27;10040;-81
2021/12/16 15:02:48;;;;;;;;;46.25;39.75;;;;;;;;5078153;28;9989;-77
2021/12/16 15:05:25;;;;;;;;;43.00;38.75;;;;;;;;5070953;28;9966;-75
2021/12/16 15:07:54;;;;;;;;;44.50;38.25;;;;;;;;5075307;28;9969;-79
2021/12/16 15:10:23;;;;;;;;;42.00;38.00;;;;;;;;5079733;28;9939;-74
2021/12/16 15:13:03;;;;;;;;;46.25;38.50;;;;;;;;5076611;28;9969;-80
2021/12/16 15:15:39;;;;;;;;;45.75;40.25;;;;;;;;5077072;28;9883;-81
2021/12/16 15:40:28;;;;;;;;;44.75;40.25;;;;;;;;5059251;28;10936;-85
2021/12/16 15:42:58;;;;;;;;;66.75;55.00;;;;;;;;5083266;28;10277;-80
2021/12/16 15:45:28;;;;;;;;;54.50;44.50;;;;;;;;5092552;28;11084;-79
2021/12/16 15:48:00;;;;;;;;;58.50;48.50;;;;;;;;5096400;28;10646;-76
2021/12/16 15:50:33;;;;;;;;;55.25;45.50;;;;;;;;5097154;28;10742;-81
2021/12/16 15:53:01;;;;;;;;;57.50;47.50;;;;;;;;5087749;28;10854;-78
2021/12/16 15:55:36;;;;;;;;;55.50;46.00;;;;;;;;5082973;28;11587;-81
2021/12/16 15:58:07;;;;;;;;;52.25;42.25;;;;;;;;5086332;28;10676;-78
2021/12/16 16:00:38;;;;;;;;;42.00;38.25;;;;;;;;5081800;28;10443;-78
2021/12/16 16:03:11;;;;;;;;;49.50;40.00;;;;;;;;5065976;28;10486;-80
2021/12/16 16:05:41;;;;;;;;;51.75;42.00;;;;;;;;5085087;28;11186;-79
2021/12/16 16:08:10;;;;;;;;;53.00;44.50;;;;;;;;5084024;28;10612;-81
2021/12/16 16:10:39;;;;;;;;;52.75;44.25;;;;;;;;5078208;28;10414;-79
2021/12/16 16:13:09;;;;;;;;;58.25;44.75;;;;;;;;5075472;28;10514;-80
2021/12/16 16:15:37;;;;;;;;;58.75;46.50;;;;;;;;5081680;28;10918;-77
2021/12/16 16:18:14;;;;;;;;;54.25;46.25;;;;;;;;5084676;28;10432;-78
2021/12/16 16:20:46;;;;;;;;;53.50;43.25;;;;;;;;5082205;28;10655;-80
2021/12/16 16:23:15;;;;;;;;;57.50;48.25;;;;;;;;5073890;28;10557;-78
2021/12/16 16:25:44;;;;;;;;;64.50;51.25;;;;;;;;5082193;28;10925;-79
2021/12/16 16:28:14;;;;;;;;;56.25;48.25;;;;;;;;5085223;28;10867;-79
2021/12/16 16:30:42;;;;;;;;;56.75;47.75;;;;;;;;5083549;28;10820;-76
2021/12/16 16:33:15;;;;;;;;;67.25;50.00;;;;;;;;5078063;28;11017;-78
2021/12/16 16:35:50;;;;;;;;;3.50;0.75;;;;;;;;5084049;28;11146;-76
2021/12/16 16:38:21;;;;;;;;;51.75;43.00;;;;;;;;5082272;28;10956;-75
2021/12/16 16:40:51;;;;;;;;;57.00;47.75;;;;;;;;5084561;28;10835;-77
2021/12/16 16:43:24;;;;;;;;;63.00;49.75;;;;;;;;5083576;28;11151;-79
2021/12/16 16:45:54;;;;;;;;;60.00;51.50;;;;;;;;5081417;28;11894;-77
2021/12/16 16:48:44;;;;;;;;;62.25;49.00;;;;;;;;5070266;28;11223;-77
2021/12/16 16:51:14;;;;;;;;;66.25;52.25;;;;;;;;5076842;28;10943;-77
2021/12/16 16:53:48;;;;;;;;;58.25;46.50;;;;;;;;5083555;28;10975;-76
2021/12/16 16:56:16;;;;;;;;;62.75;50.75;;;;;;;;5081156;28;10985;-84
2021/12/16 16:58:43;;;;;;;;;62.50;51.75;;;;;;;;5075828;28;11158;-84
2021/12/16 17:01:10;;;;;;;;;63.00;50.75;;;;;;;;5075834;28;11339;-82
2021/12/16 17:03:45;;;;;;;;;62.25;52.25;;;;;;;;5078701;28;11234;-87
2021/12/16 17:06:32;;;;;;;;;60.75;49.25;;;;;;;;5053646;28;11272;-83
2021/12/16 17:09:01;;;;;;;;;57.50;46.75;;;;;;;;5080680;28;11073;-83
2021/12/16 17:11:28;;;;;;;;;58.00;49.25;;;;;;;;5060566;28;11041;-82
2021/12/16 17:20:12;;;;;;;;;59.00;49.75;;;;;;;;5082834;28;11165;-81
2021/12/16 17:22:49;;;;;;;;;57.50;46.00;;;;;;;;5078700;28;11202;-82
2021/12/16 17:25:18;;;;;;;;;57.50;48.50;;;;;;;;5054710;28;11293;-82
2021/12/16 17:27:52;;;;;;;;;51.00;44.00;;;;;;;;5062524;28;11167;-86
2021/12/16 17:30:23;;;;;;;;;63.00;51.00;;;;;;;;5080854;28;10997;-84
2021/12/16 17:32:54;;;;;;;;;49.25;40.25;;;;;;;;5079984;28;11205;-82
2021/12/16 17:35:32;;;;;;;;;40.00;34.50;;;;;;;;5070693;28;10947;-84
2021/12/16 17:38:05;;;;;;;;;55.50;45.00;;;;;;;;5074915;28;10769;-90
2021/12/16 17:40:37;;;;;;;;;52.75;41.00;;;;;;;;5074217;28;11256;-82
2021/12/16 17:43:08;;;;;;;;;47.75;39.25;;;;;;;;5079734;28;11212;-80
2021/12/16 17:45:39;;;;;;;;;41.75;38.25;;;;;;;;5078056;28;10896;-80
2021/12/16 17:48:10;;;;;;;;;46.50;37.75;;;;;;;;5083345;28;11169;-83